CST,Max TemperatureF,Mean TemperatureF,Min TemperatureF,Max Dew PointF,MeanDew PointF,Min DewpointF,Max Humidity, Mean Humidity, Min Humidity, Max Sea Level PressureIn, Mean Sea Level PressureIn, Min Sea Level PressureIn, Max VisibilityMiles, Mean VisibilityMiles, Min VisibilityMiles, Max Wind SpeedMPH, Mean Wind SpeedMPH, Max Gust SpeedMPH,PrecipitationIn, CloudCover, Events, WindDirDegrees
2012-11-1,54,42,30,34,26,12,72,52,22,29.89,29.86,29.82,10,10,10,15,7,21,0.00,5,,301
2012-11-2,47,42,37,39,34,29,93,74,54,30.16,30.05,29.89,10,10,9,15,6,22,T,7,Rain,349
2012-11-3,43,38,32,36,31,29,92,77,60,30.23,30.19,30.13,10,10,10,12,4,14,0.00,6,,50
2012-11-4,46,39,31,36,33,29,93,81,63,30.24,30.21,30.17,10,10,8,9,1,13,T,7,Rain,353
2012-11-5,46,37,27,30,29,26,96,75,50,30.22,30.19,30.13,10,10,5,10,3,15,0.00,4,,58
2012-11-6,45,34,23,37,30,21,100,84,53,30.14,30.01,29.91,10,5,2,9,4,14,0.05,4,Rain,153
2012-11-7,51,40,29,38,35,27,100,87,54,30.18,30.02,29.91,9,4,2,8,4,10,0.02,6,Rain,85
2012-11-8,45,38,30,40,33,28,100,88,68,30.25,30.18,30.13,9,4,0,13,4,15,0.00,5,Fog,203
2012-11-9,59,45,30,44,37,28,96,78,55,30.17,30.10,30.02,10,6,1,17,6,22,0.00,3,,150
2012-11-10,72,62,51,52,46,41,77,62,49,30.05,30.00,29.95,10,10,10,20,11,28,0.00,3,,177
2012-11-11,70,61,51,54,49,44,100,73,49,30.02,29.93,29.83,10,9,4,32,17,46,0.08,5,Rain,199
2012-11-12,51,41,30,45,29,20,93,76,55,30.35,30.12,29.94,10,9,3,24,16,30,0.12,6,Rain-Snow,258
2012-11-13,40,32,23,22,18,16,81,61,40,30.54,30.49,30.35,10,10,10,16,5,22,0.00,1,,255
2012-11-14,43,33,23,26,23,20,89,73,49,30.58,30.50,30.42,10,10,7,13,3,17,0.00,0,,140
2012-11-15,46,35,23,32,26,21,93,78,50,30.43,30.40,30.35,10,6,2,7,1,9,0.00,0,,156
2012-11-16,53,39,24,33,27,21,100,74,37,30.51,30.46,30.41,10,6,1,6,1,9,0.00,0,,178
2012-11-17,55,41,26,35,30,23,89,69,43,30.59,30.53,30.48,10,7,4,10,4,14,0.00,0,,119
2012-11-18,57,43,28,34,30,25,92,67,37,30.49,30.43,30.36,10,9,4,12,5,14,0.00,0,,108
2012-11-19,59,47,34,39,34,29,79,62,44,30.35,30.26,30.14,10,10,8,14,5,16,T,3,,167
2012-11-20,57,46,35,45,42,36,100,83,66,30.19,30.13,30.08,10,4,0,8,3,12,T,6,Fog,284
2012-11-21,56,44,31,46,40,31,100,92,69,30.28,30.21,30.15,5,2,0,10,3,14,0.00,2,Fog,190
2012-11-22,61,51,40,48,43,39,97,80,54,30.14,30.02,29.83,10,6,1,26,13,32,0.01,2,,199
2012-11-23,50,40,30,43,23,16,82,64,54,30.21,30.04,29.86,10,10,10,33,21,43,0.00,6,,281
2012-11-24,32,28,24,21,18,17,75,66,59,30.27,30.19,30.06,10,10,10,16,9,21,0.00,6,,241
2012-11-25,45,36,27,26,24,21,81,66,45,30.07,29.95,29.89,10,10,10,13,6,17,0.00,2,,238
2012-11-26,38,33,28,27,24,21,82,67,55,30.35,30.24,30.08,10,10,10,12,6,17,0.00,5,,319
2012-11-27,36,29,22,23,16,10,81,60,37,30.43,30.35,30.30,10,10,10,12,6,20,0.00,2,,255
2012-11-28,45,35,24,23,19,15,72,57,35,30.40,30.35,30.29,10,10,10,13,6,17,0.00,2,,250
2012-11-29,50,39,28,32,28,22,79,65,48,30.32,30.23,30.14,10,10,7,17,8,24,0.00,2,,186
2012-11-30,54,43,32,34,31,28,89,69,47,30.17,30.12,30.08,10,10,8,13,4,15,0.00,3,,138